sensor_id;sensor_type;location;lat;lon;timestamp;P1;durP1;ratioP1;P2;durP2;ratioP2
39674;SDS011;27790;50.840;4.386;2022-10-31T00:01:23;15.85;;;7.88;;
39674;SDS011;27790;50.840;4.386;2022-10-31T00:03:50;14.25;;;7.32;;
39674;SDS011;27790;50.840;4.386;2022-10-31T00:06:16;16.10;;;7.60;;
39674;SDS011;27790;50.840;4.386;2022-10-31T00:08:45;16.30;;;7.20;;
39674;SDS011;27790;50.840;4.386;2022-10-31T00:11:11;13.63;;;6.90;;
39674;SDS011;27790;50.840;4.386;2022-10-31T00:13:37;12.95;;;7.50;;
39674;SDS011;27790;50.840;4.386;2022-10-31T00:16:03;16.85;;;7.25;;
39674;SDS011;27790;50.840;4.386;2022-10-31T00:18:29;10.73;;;7.20;;
39674;SDS011;27790;50.840;4.386;2022-10-31T00:20:58;14.95;;;6.80;;
39674;SDS011;27790;50.840;4.386;2022-10-31T00:23:27;18.35;;;8.40;;
39674;SDS011;27790;50.840;4.386;2022-10-31T00:25:53;17.13;;;6.95;;
39674;SDS011;27790;50.840;4.386;2022-10-31T00:28:19;14.65;;;6.93;;
39674;SDS011;27790;50.840;4.386;2022-10-31T00:30:45;18.45;;;6.20;;
39674;SDS011;27790;50.840;4.386;2022-10-31T00:33:10;13.95;;;7.47;;
39674;SDS011;27790;50.840;4.386;2022-10-31T00:35:36;13.70;;;6.90;;
39674;SDS011;27790;50.840;4.386;2022-10-31T00:38:01;12.60;;;6.60;;
39674;SDS011;27790;50.840;4.386;2022-10-31T00:40:27;10.65;;;6.10;;
39674;SDS011;27790;50.840;4.386;2022-10-31T00:42:52;11.48;;;6.35;;
39674;SDS011;27790;50.840;4.386;2022-10-31T00:45:18;11.27;;;6.90;;
39674;SDS011;27790;50.840;4.386;2022-10-31T00:47:43;18.73;;;7.28;;
39674;SDS011;27790;50.840;4.386;2022-10-31T00:50:09;16.98;;;6.97;;
39674;SDS011;27790;50.840;4.386;2022-10-31T00:52:35;13.20;;;6.85;;
39674;SDS011;27790;50.840;4.386;2022-10-31T00:55:00;16.42;;;7.45;;
39674;SDS011;27790;50.840;4.386;2022-10-31T00:57:26;14.93;;;7.60;;
39674;SDS011;27790;50.840;4.386;2022-10-31T00:59:51;12.77;;;6.88;;
39674;SDS011;27790;50.840;4.386;2022-10-31T01:02:17;12.77;;;6.55;;
39674;SDS011;27790;50.840;4.386;2022-10-31T01:04:42;20.33;;;8.02;;
39674;SDS011;27790;50.840;4.386;2022-10-31T01:07:09;11.95;;;6.68;;
39674;SDS011;27790;50.840;4.386;2022-10-31T01:09:37;17.13;;;7.88;;
39674;SDS011;27790;50.840;4.386;2022-10-31T01:12:02;11.38;;;6.22;;
39674;SDS011;27790;50.840;4.386;2022-10-31T01:14:28;12.73;;;6.30;;
39674;SDS011;27790;50.840;4.386;2022-10-31T01:16:54;9.02;;;5.85;;
39674;SDS011;27790;50.840;4.386;2022-10-31T01:19:19;11.10;;;6.35;;
39674;SDS011;27790;50.840;4.386;2022-10-31T01:21:45;9.70;;;6.35;;
39674;SDS011;27790;50.840;4.386;2022-10-31T01:24:10;13.75;;;6.50;;
39674;SDS011;27790;50.840;4.386;2022-10-31T01:26:36;14.65;;;6.75;;
39674;SDS011;27790;50.840;4.386;2022-10-31T01:29:05;17.08;;;6.28;;
39674;SDS011;27790;50.840;4.386;2022-10-31T01:31:33;13.13;;;6.65;;
39674;SDS011;27790;50.840;4.386;2022-10-31T01:34:02;12.98;;;6.32;;
39674;SDS011;27790;50.840;4.386;2022-10-31T01:36:32;14.02;;;6.05;;
39674;SDS011;27790;50.840;4.386;2022-10-31T01:39:00;11.00;;;6.43;;
39674;SDS011;27790;50.840;4.386;2022-10-31T01:41:32;14.13;;;6.40;;
39674;SDS011;27790;50.840;4.386;2022-10-31T01:44:01;9.52;;;6.32;;
39674;SDS011;27790;50.840;4.386;2022-10-31T01:46:48;14.45;;;6.70;;
39674;SDS011;27790;50.840;4.386;2022-10-31T01:52:01;11.65;;;6.32;;
39674;SDS011;27790;50.840;4.386;2022-10-31T01:54:39;11.25;;;6.15;;
39674;SDS011;27790;50.840;4.386;2022-10-31T01:57:08;13.98;;;6.50;;
39674;SDS011;27790;50.840;4.386;2022-10-31T01:59:38;12.98;;;7.28;;
39674;SDS011;27790;50.840;4.386;2022-10-31T02:02:08;12.48;;;6.45;;
39674;SDS011;27790;50.840;4.386;2022-10-31T02:04:35;11.38;;;7.07;;
39674;SDS011;27790;50.840;4.386;2022-10-31T02:07:13;11.32;;;7.00;;
39674;SDS011;27790;50.840;4.386;2022-10-31T02:09:41;10.20;;;6.38;;
39674;SDS011;27790;50.840;4.386;2022-10-31T02:12:09;9.77;;;6.65;;
39674;SDS011;27790;50.840;4.386;2022-10-31T02:14:36;15.00;;;6.85;;
39674;SDS011;27790;50.840;4.386;2022-10-31T02:17:03;16.13;;;7.45;;
39674;SDS011;27790;50.840;4.386;2022-10-31T02:19:40;13.98;;;7.00;;
39674;SDS011;27790;50.840;4.386;2022-10-31T02:22:25;13.43;;;6.38;;
39674;SDS011;27790;50.840;4.386;2022-10-31T02:30:18;12.38;;;6.55;;
39674;SDS011;27790;50.840;4.386;2022-10-31T02:35:53;13.10;;;7.03;;
39674;SDS011;27790;50.840;4.386;2022-10-31T02:41:18;13.30;;;6.45;;
39674;SDS011;27790;50.840;4.386;2022-10-31T02:46:39;22.27;;;7.70;;
39674;SDS011;27790;50.840;4.386;2022-10-31T02:49:22;9.45;;;6.95;;
39674;SDS011;27790;50.840;4.386;2022-10-31T02:51:59;9.82;;;6.93;;
39674;SDS011;27790;50.840;4.386;2022-10-31T02:54:25;10.05;;;7.18;;
39674;SDS011;27790;50.840;4.386;2022-10-31T02:56:54;13.40;;;7.45;;
39674;SDS011;27790;50.840;4.386;2022-10-31T02:59:25;12.20;;;7.90;;
39674;SDS011;27790;50.840;4.386;2022-10-31T03:02:01;15.65;;;7.57;;
39674;SDS011;27790;50.840;4.386;2022-10-31T03:04:43;14.35;;;7.35;;
39674;SDS011;27790;50.840;4.386;2022-10-31T03:09:51;16.95;;;7.40;;
39674;SDS011;27790;50.840;4.386;2022-10-31T03:12:28;18.55;;;7.55;;
39674;SDS011;27790;50.840;4.386;2022-10-31T03:15:02;10.25;;;6.95;;
39674;SDS011;27790;50.840;4.386;2022-10-31T03:20:21;17.48;;;7.75;;
39674;SDS011;27790;50.840;4.386;2022-10-31T03:22:51;23.90;;;7.97;;
39674;SDS011;27790;50.840;4.386;2022-10-31T03:25:19;14.85;;;6.93;;
39674;SDS011;27790;50.840;4.386;2022-10-31T03:27:45;15.52;;;8.00;;
39674;SDS011;27790;50.840;4.386;2022-10-31T03:30:11;12.20;;;7.78;;
39674;SDS011;27790;50.840;4.386;2022-10-31T03:32:42;14.20;;;7.35;;
39674;SDS011;27790;50.840;4.386;2022-10-31T03:35:12;18.25;;;8.00;;
39674;SDS011;27790;50.840;4.386;2022-10-31T03:37:39;16.40;;;7.38;;
39674;SDS011;27790;50.840;4.386;2022-10-31T03:40:06;15.07;;;7.72;;
39674;SDS011;27790;50.840;4.386;2022-10-31T03:42:37;12.05;;;7.22;;
39674;SDS011;27790;50.840;4.386;2022-10-31T03:47:36;11.65;;;7.57;;
39674;SDS011;27790;50.840;4.386;2022-10-31T03:50:03;15.25;;;8.05;;
39674;SDS011;27790;50.840;4.386;2022-10-31T03:57:45;12.55;;;7.95;;
39674;SDS011;27790;50.840;4.386;2022-10-31T04:00:11;20.08;;;7.15;;
39674;SDS011;27790;50.840;4.386;2022-10-31T04:02:40;11.77;;;7.40;;
39674;SDS011;27790;50.840;4.386;2022-10-31T04:05:10;10.77;;;8.25;;
39674;SDS011;27790;50.840;4.386;2022-10-31T04:07:39;13.73;;;7.63;;
39674;SDS011;27790;50.840;4.386;2022-10-31T04:10:09;14.85;;;7.57;;
39674;SDS011;27790;50.840;4.386;2022-10-31T04:12:37;11.93;;;7.22;;
39674;SDS011;27790;50.840;4.386;2022-10-31T04:15:04;21.80;;;8.43;;
39674;SDS011;27790;50.840;4.386;2022-10-31T04:17:33;12.50;;;7.70;;
39674;SDS011;27790;50.840;4.386;2022-10-31T04:20:02;11.27;;;7.72;;
39674;SDS011;27790;50.840;4.386;2022-10-31T04:22:28;14.40;;;7.82;;
39674;SDS011;27790;50.840;4.386;2022-10-31T04:24:54;17.30;;;7.15;;
39674;SDS011;27790;50.840;4.386;2022-10-31T04:27:20;15.75;;;7.55;;
39674;SDS011;27790;50.840;4.386;2022-10-31T04:29:45;9.70;;;7.65;;
39674;SDS011;27790;50.840;4.386;2022-10-31T04:32:11;17.58;;;7.65;;
39674;SDS011;27790;50.840;4.386;2022-10-31T04:34:36;14.65;;;8.43;;
39674;SDS011;27790;50.840;4.386;2022-10-31T04:37:02;14.80;;;8.10;;
39674;SDS011;27790;50.840;4.386;2022-10-31T04:39:27;18.55;;;8.95;;
39674;SDS011;27790;50.840;4.386;2022-10-31T04:41:53;13.60;;;7.88;;
39674;SDS011;27790;50.840;4.386;2022-10-31T04:44:18;13.05;;;8.05;;
39674;SDS011;27790;50.840;4.386;2022-10-31T04:46:44;16.52;;;8.00;;
39674;SDS011;27790;50.840;4.386;2022-10-31T04:49:10;17.25;;;8.63;;
39674;SDS011;27790;50.840;4.386;2022-10-31T04:51:35;14.32;;;7.88;;
39674;SDS011;27790;50.840;4.386;2022-10-31T04:54:01;20.50;;;8.90;;
39674;SDS011;27790;50.840;4.386;2022-10-31T04:56:26;15.70;;;8.65;;
39674;SDS011;27790;50.840;4.386;2022-10-31T04:58:52;17.30;;;7.88;;
39674;SDS011;27790;50.840;4.386;2022-10-31T05:01:17;17.75;;;8.55;;
39674;SDS011;27790;50.840;4.386;2022-10-31T05:03:43;21.25;;;9.15;;
39674;SDS011;27790;50.840;4.386;2022-10-31T05:06:08;18.15;;;9.05;;
39674;SDS011;27790;50.840;4.386;2022-10-31T05:08:34;21.00;;;10.73;;
39674;SDS011;27790;50.840;4.386;2022-10-31T05:11:00;12.35;;;8.98;;
39674;SDS011;27790;50.840;4.386;2022-10-31T05:13:27;17.60;;;8.90;;
39674;SDS011;27790;50.840;4.386;2022-10-31T05:15:53;14.63;;;8.88;;
39674;SDS011;27790;50.840;4.386;2022-10-31T05:18:18;16.35;;;9.57;;
39674;SDS011;27790;50.840;4.386;2022-10-31T05:20:44;15.57;;;9.05;;
39674;SDS011;27790;50.840;4.386;2022-10-31T05:23:09;14.27;;;9.20;;
39674;SDS011;27790;50.840;4.386;2022-10-31T05:25:35;16.30;;;10.00;;
39674;SDS011;27790;50.840;4.386;2022-10-31T05:28:01;16.50;;;10.27;;
39674;SDS011;27790;50.840;4.386;2022-10-31T05:30:29;19.08;;;10.18;;
39674;SDS011;27790;50.840;4.386;2022-10-31T05:32:56;18.40;;;10.15;;
39674;SDS011;27790;50.840;4.386;2022-10-31T05:35:26;21.38;;;9.98;;
39674;SDS011;27790;50.840;4.386;2022-10-31T05:37:53;13.75;;;10.18;;
39674;SDS011;27790;50.840;4.386;2022-10-31T05:40:19;14.57;;;9.15;;
39674;SDS011;27790;50.840;4.386;2022-10-31T05:42:46;26.58;;;10.50;;
39674;SDS011;27790;50.840;4.386;2022-10-31T05:45:13;18.25;;;10.25;;
39674;SDS011;27790;50.840;4.386;2022-10-31T05:47:41;20.17;;;10.80;;
39674;SDS011;27790;50.840;4.386;2022-10-31T05:50:07;18.33;;;9.98;;
39674;SDS011;27790;50.840;4.386;2022-10-31T05:52:34;16.27;;;10.00;;
39674;SDS011;27790;50.840;4.386;2022-10-31T05:55:00;17.13;;;10.13;;
39674;SDS011;27790;50.840;4.386;2022-10-31T05:57:25;20.25;;;9.68;;
39674;SDS011;27790;50.840;4.386;2022-10-31T05:59:51;20.83;;;11.25;;
39674;SDS011;27790;50.840;4.386;2022-10-31T06:02:18;28.17;;;11.55;;
39674;SDS011;27790;50.840;4.386;2022-10-31T06:04:44;18.10;;;11.05;;
39674;SDS011;27790;50.840;4.386;2022-10-31T06:07:10;16.60;;;9.98;;
39674;SDS011;27790;50.840;4.386;2022-10-31T06:09:35;17.88;;;9.85;;
39674;SDS011;27790;50.840;4.386;2022-10-31T06:12:01;23.08;;;10.65;;
39674;SDS011;27790;50.840;4.386;2022-10-31T06:14:26;20.50;;;10.85;;
39674;SDS011;27790;50.840;4.386;2022-10-31T06:16:53;18.45;;;10.05;;
39674;SDS011;27790;50.840;4.386;2022-10-31T06:19:19;19.70;;;10.15;;
39674;SDS011;27790;50.840;4.386;2022-10-31T06:21:45;19.58;;;9.88;;
39674;SDS011;27790;50.840;4.386;2022-10-31T06:24:10;18.77;;;10.50;;
39674;SDS011;27790;50.840;4.386;2022-10-31T06:26:36;21.73;;;10.20;;
39674;SDS011;27790;50.840;4.386;2022-10-31T06:29:02;21.60;;;11.25;;
39674;SDS011;27790;50.840;4.386;2022-10-31T06:31:27;19.00;;;10.75;;
39674;SDS011;27790;50.840;4.386;2022-10-31T06:33:53;40.13;;;11.00;;
39674;SDS011;27790;50.840;4.386;2022-10-31T06:36:18;28.40;;;10.68;;
39674;SDS011;27790;50.840;4.386;2022-10-31T06:38:44;27.45;;;10.18;;
39674;SDS011;27790;50.840;4.386;2022-10-31T06:41:10;26.55;;;10.95;;
39674;SDS011;27790;50.840;4.386;2022-10-31T06:43:35;27.27;;;9.95;;
39674;SDS011;27790;50.840;4.386;2022-10-31T06:46:04;26.45;;;10.65;;
39674;SDS011;27790;50.840;4.386;2022-10-31T06:48:30;23.60;;;9.48;;
39674;SDS011;27790;50.840;4.386;2022-10-31T06:50:59;25.15;;;10.23;;
39674;SDS011;27790;50.840;4.386;2022-10-31T06:53:26;26.35;;;11.20;;
39674;SDS011;27790;50.840;4.386;2022-10-31T06:55:54;20.42;;;11.02;;
39674;SDS011;27790;50.840;4.386;2022-10-31T06:58:20;17.30;;;10.32;;
39674;SDS011;27790;50.840;4.386;2022-10-31T07:00:46;22.95;;;9.88;;
39674;SDS011;27790;50.840;4.386;2022-10-31T07:03:12;21.33;;;10.00;;
39674;SDS011;27790;50.840;4.386;2022-10-31T07:05:38;15.93;;;10.18;;
39674;SDS011;27790;50.840;4.386;2022-10-31T07:08:09;24.20;;;10.60;;
39674;SDS011;27790;50.840;4.386;2022-10-31T07:10:37;22.52;;;10.75;;
39674;SDS011;27790;50.840;4.386;2022-10-31T07:13:05;26.20;;;11.23;;
39674;SDS011;27790;50.840;4.386;2022-10-31T07:15:35;31.52;;;11.40;;
39674;SDS011;27790;50.840;4.386;2022-10-31T07:18:02;17.23;;;10.55;;
39674;SDS011;27790;50.840;4.386;2022-10-31T07:20:29;30.55;;;9.90;;
39674;SDS011;27790;50.840;4.386;2022-10-31T07:22:55;37.13;;;10.57;;
39674;SDS011;27790;50.840;4.386;2022-10-31T07:25:21;38.40;;;11.57;;
39674;SDS011;27790;50.840;4.386;2022-10-31T07:27:47;23.75;;;10.23;;
39674;SDS011;27790;50.840;4.386;2022-10-31T07:30:13;20.67;;;10.52;;
39674;SDS011;27790;50.840;4.386;2022-10-31T07:32:40;23.17;;;11.55;;
39674;SDS011;27790;50.840;4.386;2022-10-31T07:35:07;85.22;;;13.05;;
39674;SDS011;27790;50.840;4.386;2022-10-31T07:37:34;85.07;;;12.40;;
39674;SDS011;27790;50.840;4.386;2022-10-31T07:39:59;32.42;;;10.98;;
39674;SDS011;27790;50.840;4.386;2022-10-31T07:42:26;43.63;;;11.73;;
39674;SDS011;27790;50.840;4.386;2022-10-31T07:44:52;129.65;;;16.17;;
39674;SDS011;27790;50.840;4.386;2022-10-31T07:47:17;61.38;;;13.93;;
39674;SDS011;27790;50.840;4.386;2022-10-31T07:49:43;27.95;;;11.27;;
39674;SDS011;27790;50.840;4.386;2022-10-31T07:52:08;51.95;;;12.10;;
39674;SDS011;27790;50.840;4.386;2022-10-31T07:54:34;45.30;;;11.93;;
39674;SDS011;27790;50.840;4.386;2022-10-31T07:56:59;19.80;;;9.23;;
39674;SDS011;27790;50.840;4.386;2022-10-31T07:59:25;13.60;;;9.02;;
39674;SDS011;27790;50.840;4.386;2022-10-31T08:01:52;16.98;;;9.93;;
39674;SDS011;27790;50.840;4.386;2022-10-31T08:04:18;18.63;;;9.23;;
39674;SDS011;27790;50.840;4.386;2022-10-31T08:06:43;14.32;;;8.35;;
39674;SDS011;27790;50.840;4.386;2022-10-31T08:09:09;14.50;;;8.40;;
39674;SDS011;27790;50.840;4.386;2022-10-31T08:11:34;15.68;;;7.82;;
39674;SDS011;27790;50.840;4.386;2022-10-31T08:14:00;19.48;;;8.93;;
39674;SDS011;27790;50.840;4.386;2022-10-31T08:16:26;21.33;;;9.25;;
39674;SDS011;27790;50.840;4.386;2022-10-31T08:18:52;16.90;;;8.40;;
39674;SDS011;27790;50.840;4.386;2022-10-31T08:21:20;41.47;;;10.73;;
39674;SDS011;27790;50.840;4.386;2022-10-31T08:23:45;15.00;;;8.48;;
39674;SDS011;27790;50.840;4.386;2022-10-31T08:26:11;21.70;;;8.98;;
39674;SDS011;27790;50.840;4.386;2022-10-31T08:28:37;19.30;;;8.07;;
39674;SDS011;27790;50.840;4.386;2022-10-31T08:31:02;16.73;;;9.18;;
39674;SDS011;27790;50.840;4.386;2022-10-31T08:33:28;20.05;;;8.73;;
39674;SDS011;27790;50.840;4.386;2022-10-31T08:35:53;29.33;;;9.82;;
39674;SDS011;27790;50.840;4.386;2022-10-31T08:38:19;22.70;;;9.38;;
39674;SDS011;27790;50.840;4.386;2022-10-31T08:40:47;18.52;;;8.75;;
39674;SDS011;27790;50.840;4.386;2022-10-31T08:43:14;16.60;;;7.90;;
39674;SDS011;27790;50.840;4.386;2022-10-31T08:45:41;13.48;;;6.97;;
39674;SDS011;27790;50.840;4.386;2022-10-31T08:48:09;16.40;;;8.05;;
39674;SDS011;27790;50.840;4.386;2022-10-31T08:50:36;15.15;;;8.52;;
39674;SDS011;27790;50.840;4.386;2022-10-31T08:53:06;20.80;;;8.35;;
39674;SDS011;27790;50.840;4.386;2022-10-31T08:55:43;25.45;;;10.52;;
39674;SDS011;27790;50.840;4.386;2022-10-31T08:58:11;20.90;;;9.13;;
39674;SDS011;27790;50.840;4.386;2022-10-31T09:00:38;20.30;;;8.70;;
39674;SDS011;27790;50.840;4.386;2022-10-31T09:03:05;21.58;;;8.40;;
39674;SDS011;27790;50.840;4.386;2022-10-31T09:05:33;14.35;;;8.13;;
39674;SDS011;27790;50.840;4.386;2022-10-31T09:08:00;16.17;;;6.65;;
39674;SDS011;27790;50.840;4.386;2022-10-31T09:10:26;13.23;;;6.72;;
39674;SDS011;27790;50.840;4.386;2022-10-31T09:15:26;13.38;;;6.68;;
39674;SDS011;27790;50.840;4.386;2022-10-31T09:17:52;13.25;;;7.10;;
39674;SDS011;27790;50.840;4.386;2022-10-31T09:20:18;14.32;;;7.53;;
39674;SDS011;27790;50.840;4.386;2022-10-31T09:22:44;10.27;;;7.10;;
39674;SDS011;27790;50.840;4.386;2022-10-31T09:25:10;11.75;;;6.57;;
39674;SDS011;27790;50.840;4.386;2022-10-31T09:27:36;20.52;;;7.35;;
39674;SDS011;27790;50.840;4.386;2022-10-31T09:30:02;11.02;;;7.60;;
39674;SDS011;27790;50.840;4.386;2022-10-31T09:32:28;35.75;;;8.63;;
39674;SDS011;27790;50.840;4.386;2022-10-31T09:34:54;26.70;;;7.53;;
39674;SDS011;27790;50.840;4.386;2022-10-31T09:37:19;22.60;;;7.47;;
39674;SDS011;27790;50.840;4.386;2022-10-31T09:39:45;13.18;;;7.07;;
39674;SDS011;27790;50.840;4.386;2022-10-31T09:47:40;18.27;;;7.55;;
39674;SDS011;27790;50.840;4.386;2022-10-31T09:50:24;16.08;;;7.15;;
39674;SDS011;27790;50.840;4.386;2022-10-31T09:52:58;12.18;;;6.05;;
39674;SDS011;27790;50.840;4.386;2022-10-31T09:55:31;16.00;;;7.47;;
39674;SDS011;27790;50.840;4.386;2022-10-31T09:58:02;15.32;;;6.43;;
39674;SDS011;27790;50.840;4.386;2022-10-31T10:00:28;12.65;;;7.32;;
39674;SDS011;27790;50.840;4.386;2022-10-31T10:02:59;11.77;;;7.00;;
39674;SDS011;27790;50.840;4.386;2022-10-31T10:05:45;17.15;;;7.32;;
39674;SDS011;27790;50.840;4.386;2022-10-31T10:08:23;14.43;;;6.35;;
39674;SDS011;27790;50.840;4.386;2022-10-31T10:13:45;20.95;;;7.95;;
39674;SDS011;27790;50.840;4.386;2022-10-31T10:19:21;50.65;;;9.30;;
39674;SDS011;27790;50.840;4.386;2022-10-31T10:30:12;12.48;;;5.75;;
39674;SDS011;27790;50.840;4.386;2022-10-31T10:37:52;9.23;;;5.82;;
39674;SDS011;27790;50.840;4.386;2022-10-31T10:40:27;13.48;;;6.93;;
39674;SDS011;27790;50.840;4.386;2022-10-31T10:43:01;13.30;;;7.15;;
39674;SDS011;27790;50.840;4.386;2022-10-31T10:45:45;12.13;;;6.93;;
39674;SDS011;27790;50.840;4.386;2022-10-31T10:48:39;9.05;;;6.53;;
39674;SDS011;27790;50.840;4.386;2022-10-31T10:59:25;16.20;;;7.60;;
39674;SDS011;27790;50.840;4.386;2022-10-31T11:01:51;14.98;;;6.88;;
39674;SDS011;27790;50.840;4.386;2022-10-31T11:07:06;12.80;;;6.57;;
39674;SDS011;27790;50.840;4.386;2022-10-31T11:09:33;11.77;;;7.25;;
39674;SDS011;27790;50.840;4.386;2022-10-31T11:12:00;17.40;;;7.63;;
39674;SDS011;27790;50.840;4.386;2022-10-31T11:14:42;13.90;;;6.05;;
39674;SDS011;27790;50.840;4.386;2022-10-31T11:17:21;14.65;;;6.95;;
39674;SDS011;27790;50.840;4.386;2022-10-31T11:22:48;13.20;;;6.75;;
39674;SDS011;27790;50.840;4.386;2022-10-31T11:30:29;10.63;;;6.80;;
39674;SDS011;27790;50.840;4.386;2022-10-31T11:33:00;10.95;;;7.25;;
39674;SDS011;27790;50.840;4.386;2022-10-31T11:35:26;15.00;;;7.28;;
39674;SDS011;27790;50.840;4.386;2022-10-31T11:37:54;15.20;;;7.15;;
39674;SDS011;27790;50.840;4.386;2022-10-31T11:40:24;12.63;;;6.95;;
39674;SDS011;27790;50.840;4.386;2022-10-31T11:42:52;13.13;;;7.15;;
39674;SDS011;27790;50.840;4.386;2022-10-31T11:47:48;20.48;;;7.63;;
39674;SDS011;27790;50.840;4.386;2022-10-31T11:50:22;13.40;;;7.93;;
39674;SDS011;27790;50.840;4.386;2022-10-31T11:52:56;14.65;;;7.13;;
39674;SDS011;27790;50.840;4.386;2022-10-31T11:58:02;14.88;;;8.00;;
39674;SDS011;27790;50.840;4.386;2022-10-31T12:00:38;16.48;;;8.15;;
39674;SDS011;27790;50.840;4.386;2022-10-31T12:05:48;18.15;;;7.50;;
39674;SDS011;27790;50.840;4.386;2022-10-31T12:08:29;13.57;;;7.55;;
39674;SDS011;27790;50.840;4.386;2022-10-31T12:13:34;15.30;;;7.72;;
39674;SDS011;27790;50.840;4.386;2022-10-31T12:16:02;15.88;;;6.90;;
39674;SDS011;27790;50.840;4.386;2022-10-31T12:21:28;17.00;;;7.20;;
39674;SDS011;27790;50.840;4.386;2022-10-31T12:56:29;24.15;;;7.13;;
39674;SDS011;27790;50.840;4.386;2022-10-31T12:59:09;27.52;;;6.97;;
39674;SDS011;27790;50.840;4.386;2022-10-31T13:01:59;28.65;;;6.95;;
39674;SDS011;27790;50.840;4.386;2022-10-31T13:04:50;14.88;;;6.05;;
39674;SDS011;27790;50.840;4.386;2022-10-31T13:07:23;18.35;;;5.47;;
39674;SDS011;27790;50.840;4.386;2022-10-31T13:12:26;13.38;;;6.18;;
39674;SDS011;27790;50.840;4.386;2022-10-31T13:14:55;14.85;;;6.47;;
39674;SDS011;27790;50.840;4.386;2022-10-31T13:17:29;11.48;;;6.32;;
39674;SDS011;27790;50.840;4.386;2022-10-31T13:20:02;60.92;;;11.15;;
39674;SDS011;27790;50.840;4.386;2022-10-31T13:22:39;22.75;;;7.05;;
39674;SDS011;27790;50.840;4.386;2022-10-31T13:30:22;16.90;;;5.43;;
39674;SDS011;27790;50.840;4.386;2022-10-31T13:32:59;16.23;;;5.63;;
39674;SDS011;27790;50.840;4.386;2022-10-31T13:35:38;12.52;;;6.03;;
39674;SDS011;27790;50.840;4.386;2022-10-31T13:38:19;22.40;;;7.35;;
39674;SDS011;27790;50.840;4.386;2022-10-31T13:41:01;20.67;;;6.85;;
39674;SDS011;27790;50.840;4.386;2022-10-31T13:46:24;15.20;;;6.30;;
39674;SDS011;27790;50.840;4.386;2022-10-31T13:51:46;16.63;;;7.13;;
39674;SDS011;27790;50.840;4.386;2022-10-31T13:56:58;17.90;;;5.97;;
39674;SDS011;27790;50.840;4.386;2022-10-31T13:59:27;25.20;;;7.45;;
39674;SDS011;27790;50.840;4.386;2022-10-31T14:02:00;16.42;;;7.20;;
39674;SDS011;27790;50.840;4.386;2022-10-31T14:04:36;14.13;;;5.95;;
39674;SDS011;27790;50.840;4.386;2022-10-31T14:07:15;11.70;;;5.97;;
39674;SDS011;27790;50.840;4.386;2022-10-31T14:12:30;14.20;;;5.40;;
39674;SDS011;27790;50.840;4.386;2022-10-31T14:15:03;17.20;;;5.43;;
39674;SDS011;27790;50.840;4.386;2022-10-31T14:31:39;12.32;;;5.28;;
39674;SDS011;27790;50.840;4.386;2022-10-31T14:42:01;18.77;;;5.25;;
39674;SDS011;27790;50.840;4.386;2022-10-31T14:52:22;14.57;;;5.45;;
39674;SDS011;27790;50.840;4.386;2022-10-31T14:54:52;14.00;;;5.55;;
39674;SDS011;27790;50.840;4.386;2022-10-31T14:57:27;13.88;;;5.28;;
39674;SDS011;27790;50.840;4.386;2022-10-31T14:59:57;11.43;;;4.55;;
39674;SDS011;27790;50.840;4.386;2022-10-31T15:02:34;14.02;;;4.70;;
39674;SDS011;27790;50.840;4.386;2022-10-31T15:05:09;13.45;;;5.82;;
39674;SDS011;27790;50.840;4.386;2022-10-31T15:07:36;33.83;;;6.57;;
39674;SDS011;27790;50.840;4.386;2022-10-31T15:10:23;15.50;;;5.30;;
39674;SDS011;27790;50.840;4.386;2022-10-31T15:12:49;20.25;;;6.43;;
39674;SDS011;27790;50.840;4.386;2022-10-31T15:15:25;14.65;;;5.82;;
39674;SDS011;27790;50.840;4.386;2022-10-31T15:20:20;17.42;;;6.53;;
39674;SDS011;27790;50.840;4.386;2022-10-31T15:22:48;16.58;;;6.32;;
39674;SDS011;27790;50.840;4.386;2022-10-31T15:25:21;17.10;;;6.93;;
39674;SDS011;27790;50.840;4.386;2022-10-31T15:27:48;26.40;;;7.85;;
39674;SDS011;27790;50.840;4.386;2022-10-31T15:30:22;14.18;;;5.72;;
39674;SDS011;27790;50.840;4.386;2022-10-31T15:32:50;19.50;;;6.15;;
39674;SDS011;27790;50.840;4.386;2022-10-31T15:37:54;16.35;;;5.93;;
39674;SDS011;27790;50.840;4.386;2022-10-31T15:40:22;28.02;;;7.70;;
39674;SDS011;27790;50.840;4.386;2022-10-31T15:43:10;14.65;;;6.82;;
39674;SDS011;27790;50.840;4.386;2022-10-31T15:45:41;11.18;;;6.13;;
39674;SDS011;27790;50.840;4.386;2022-10-31T15:48:15;17.85;;;8.13;;
39674;SDS011;27790;50.840;4.386;2022-10-31T15:50:47;17.38;;;7.28;;
39674;SDS011;27790;50.840;4.386;2022-10-31T15:53:20;18.35;;;9.30;;
39674;SDS011;27790;50.840;4.386;2022-10-31T15:55:56;18.15;;;7.30;;
39674;SDS011;27790;50.840;4.386;2022-10-31T15:58:26;17.08;;;6.78;;
39674;SDS011;27790;50.840;4.386;2022-10-31T16:01:00;27.95;;;7.35;;
39674;SDS011;27790;50.840;4.386;2022-10-31T16:03:28;21.48;;;7.72;;
39674;SDS011;27790;50.840;4.386;2022-10-31T16:05:56;26.10;;;7.95;;
39674;SDS011;27790;50.840;4.386;2022-10-31T16:10:56;15.60;;;7.95;;
39674;SDS011;27790;50.840;4.386;2022-10-31T16:13:37;25.88;;;8.65;;
39674;SDS011;27790;50.840;4.386;2022-10-31T16:16:13;17.92;;;8.75;;
39674;SDS011;27790;50.840;4.386;2022-10-31T16:18:40;23.65;;;8.45;;
39674;SDS011;27790;50.840;4.386;2022-10-31T16:21:07;16.60;;;7.75;;
39674;SDS011;27790;50.840;4.386;2022-10-31T16:23:34;60.05;;;11.02;;
39674;SDS011;27790;50.840;4.386;2022-10-31T16:26:07;49.47;;;12.13;;
39674;SDS011;27790;50.840;4.386;2022-10-31T16:28:33;38.25;;;13.05;;
39674;SDS011;27790;50.840;4.386;2022-10-31T16:31:00;49.33;;;14.98;;
39674;SDS011;27790;50.840;4.386;2022-10-31T16:33:30;52.35;;;15.30;;
39674;SDS011;27790;50.840;4.386;2022-10-31T16:36:38;52.65;;;13.75;;
39674;SDS011;27790;50.840;4.386;2022-10-31T16:39:00;23.30;;;9.70;;
39674;SDS011;27790;50.840;4.386;2022-10-31T16:41:25;32.13;;;10.80;;
39674;SDS011;27790;50.840;4.386;2022-10-31T16:43:51;46.20;;;11.63;;
39674;SDS011;27790;50.840;4.386;2022-10-31T16:46:19;36.63;;;11.82;;
39674;SDS011;27790;50.840;4.386;2022-10-31T16:48:48;35.67;;;11.43;;
39674;SDS011;27790;50.840;4.386;2022-10-31T16:51:13;21.63;;;11.45;;
39674;SDS011;27790;50.840;4.386;2022-10-31T16:53:39;21.40;;;11.05;;
39674;SDS011;27790;50.840;4.386;2022-10-31T16:56:05;32.78;;;12.93;;
39674;SDS011;27790;50.840;4.386;2022-10-31T16:58:46;26.63;;;12.73;;
39674;SDS011;27790;50.840;4.386;2022-10-31T17:01:12;19.42;;;9.57;;
39674;SDS011;27790;50.840;4.386;2022-10-31T17:03:38;25.13;;;10.18;;
39674;SDS011;27790;50.840;4.386;2022-10-31T17:06:04;16.20;;;8.80;;
39674;SDS011;27790;50.840;4.386;2022-10-31T17:08:29;14.27;;;8.43;;
39674;SDS011;27790;50.840;4.386;2022-10-31T17:10:55;21.75;;;8.27;;
39674;SDS011;27790;50.840;4.386;2022-10-31T17:13:26;14.27;;;6.50;;
39674;SDS011;27790;50.840;4.386;2022-10-31T17:15:55;22.55;;;8.05;;
39674;SDS011;27790;50.840;4.386;2022-10-31T17:18:23;17.25;;;6.90;;
39674;SDS011;27790;50.840;4.386;2022-10-31T17:20:48;20.17;;;7.47;;
39674;SDS011;27790;50.840;4.386;2022-10-31T17:23:15;15.55;;;7.03;;
39674;SDS011;27790;50.840;4.386;2022-10-31T17:25:41;16.77;;;6.40;;
39674;SDS011;27790;50.840;4.386;2022-10-31T17:28:10;21.33;;;7.07;;
39674;SDS011;27790;50.840;4.386;2022-10-31T17:30:38;20.42;;;6.22;;
39674;SDS011;27790;50.840;4.386;2022-10-31T17:33:04;15.27;;;5.75;;
39674;SDS011;27790;50.840;4.386;2022-10-31T17:35:30;10.98;;;5.90;;
39674;SDS011;27790;50.840;4.386;2022-10-31T17:37:56;15.85;;;6.43;;
39674;SDS011;27790;50.840;4.386;2022-10-31T17:40:21;14.82;;;5.47;;
39674;SDS011;27790;50.840;4.386;2022-10-31T17:42:47;14.68;;;5.93;;